sensor_id;sensor_type;location;lat;lon;timestamp;P1;durP1;ratioP1;P2;durP2;ratioP2
18685;SDS011;9473;52.342;13.110;2023-06-10T00:01:23;9.38;;;4.50;;
18685;SDS011;9473;52.342;13.110;2023-06-10T00:03:50;9.73;;;4.35;;
18685;SDS011;9473;52.342;13.110;2023-06-10T00:06:17;13.95;;;4.40;;
18685;SDS011;9473;52.342;13.110;2023-06-10T00:08:46;8.77;;;4.20;;
18685;SDS011;9473;52.342;13.110;2023-06-10T00:11:13;8.80;;;4.15;;
18685;SDS011;9473;52.342;13.110;2023-06-10T00:13:40;8.10;;;4.10;;
18685;SDS011;9473;52.342;13.110;2023-06-10T00:16:07;9.85;;;4.03;;
18685;SDS011;9473;52.342;13.110;2023-06-10T00:18:36;10.63;;;4.75;;
18685;SDS011;9473;52.342;13.110;2023-06-10T00:21:03;7.78;;;4.38;;
18685;SDS011;9473;52.342;13.110;2023-06-10T00:23:30;8.65;;;4.25;;
18685;SDS011;9473;52.342;13.110;2023-06-10T00:26:03;11.07;;;4.47;;
18685;SDS011;9473;52.342;13.110;2023-06-10T00:28:30;10.52;;;4.13;;
18685;SDS011;9473;52.342;13.110;2023-06-10T00:30:57;11.23;;;4.88;;
18685;SDS011;9473;52.342;13.110;2023-06-10T00:33:24;6.38;;;3.80;;
18685;SDS011;9473;52.342;13.110;2023-06-10T00:35:52;10.13;;;4.43;;
18685;SDS011;9473;52.342;13.110;2023-06-10T00:38:19;9.30;;;4.20;;
18685;SDS011;9473;52.342;13.110;2023-06-10T00:40:46;9.02;;;3.92;;
18685;SDS011;9473;52.342;13.110;2023-06-10T00:43:13;11.07;;;4.40;;
18685;SDS011;9473;52.342;13.110;2023-06-10T00:45:40;10.43;;;4.60;;
18685;SDS011;9473;52.342;13.110;2023-06-10T00:48:07;10.18;;;4.20;;
18685;SDS011;9473;52.342;13.110;2023-06-10T00:50:34;9.15;;;4.13;;
18685;SDS011;9473;52.342;13.110;2023-06-10T00:53:05;10.02;;;4.53;;
18685;SDS011;9473;52.342;13.110;2023-06-10T00:55:32;11.50;;;3.90;;
18685;SDS011;9473;52.342;13.110;2023-06-10T00:57:59;10.70;;;4.22;;
18685;SDS011;9473;52.342;13.110;2023-06-10T01:00:26;9.55;;;4.63;;
18685;SDS011;9473;52.342;13.110;2023-06-10T01:02:53;15.68;;;4.75;;
18685;SDS011;9473;52.342;13.110;2023-06-10T01:05:20;10.85;;;4.00;;
18685;SDS011;9473;52.342;13.110;2023-06-10T01:07:49;9.55;;;4.00;;
18685;SDS011;9473;52.342;13.110;2023-06-10T01:10:22;9.45;;;3.60;;
18685;SDS011;9473;52.342;13.110;2023-06-10T01:12:52;8.85;;;4.22;;
18685;SDS011;9473;52.342;13.110;2023-06-10T01:15:21;9.52;;;4.15;;
18685;SDS011;9473;52.342;13.110;2023-06-10T01:17:55;9.98;;;4.30;;
18685;SDS011;9473;52.342;13.110;2023-06-10T01:20:23;7.68;;;3.95;;
18685;SDS011;9473;52.342;13.110;2023-06-10T01:22:53;10.90;;;4.13;;
18685;SDS011;9473;52.342;13.110;2023-06-10T01:25:20;10.25;;;4.75;;
18685;SDS011;9473;52.342;13.110;2023-06-10T01:27:52;8.75;;;4.07;;
18685;SDS011;9473;52.342;13.110;2023-06-10T01:30:20;10.40;;;3.88;;
18685;SDS011;9473;52.342;13.110;2023-06-10T01:32:50;11.43;;;4.00;;
18685;SDS011;9473;52.342;13.110;2023-06-10T01:35:18;8.32;;;4.03;;
18685;SDS011;9473;52.342;13.110;2023-06-10T01:37:46;7.97;;;3.80;;
18685;SDS011;9473;52.342;13.110;2023-06-10T01:40:16;10.75;;;4.53;;
18685;SDS011;9473;52.342;13.110;2023-06-10T01:42:43;12.55;;;4.32;;
18685;SDS011;9473;52.342;13.110;2023-06-10T01:45:10;10.52;;;4.47;;
18685;SDS011;9473;52.342;13.110;2023-06-10T01:47:37;10.77;;;3.65;;
18685;SDS011;9473;52.342;13.110;2023-06-10T01:50:04;9.07;;;3.97;;
18685;SDS011;9473;52.342;13.110;2023-06-10T01:52:31;10.07;;;4.10;;
18685;SDS011;9473;52.342;13.110;2023-06-10T01:54:58;8.20;;;4.00;;
18685;SDS011;9473;52.342;13.110;2023-06-10T01:57:26;8.77;;;4.13;;
18685;SDS011;9473;52.342;13.110;2023-06-10T01:59:53;8.90;;;4.40;;
18685;SDS011;9473;52.342;13.110;2023-06-10T02:02:20;12.13;;;4.60;;
18685;SDS011;9473;52.342;13.110;2023-06-10T02:04:47;8.90;;;4.00;;
18685;SDS011;9473;52.342;13.110;2023-06-10T02:07:14;8.55;;;4.10;;
18685;SDS011;9473;52.342;13.110;2023-06-10T02:09:41;9.15;;;4.05;;
18685;SDS011;9473;52.342;13.110;2023-06-10T02:12:08;8.23;;;3.90;;
18685;SDS011;9473;52.342;13.110;2023-06-10T02:14:37;11.68;;;4.05;;
18685;SDS011;9473;52.342;13.110;2023-06-10T02:17:05;9.32;;;3.67;;
18685;SDS011;9473;52.342;13.110;2023-06-10T02:19:31;11.10;;;3.97;;
18685;SDS011;9473;52.342;13.110;2023-06-10T02:22:01;12.48;;;4.18;;
18685;SDS011;9473;52.342;13.110;2023-06-10T02:24:28;10.63;;;3.88;;
18685;SDS011;9473;52.342;13.110;2023-06-10T02:26:55;11.65;;;3.92;;
18685;SDS011;9473;52.342;13.110;2023-06-10T02:29:25;11.43;;;4.10;;
18685;SDS011;9473;52.342;13.110;2023-06-10T02:31:53;13.98;;;3.80;;
18685;SDS011;9473;52.342;13.110;2023-06-10T02:34:21;9.98;;;3.60;;
18685;SDS011;9473;52.342;13.110;2023-06-10T02:36:48;10.30;;;4.22;;
18685;SDS011;9473;52.342;13.110;2023-06-10T02:39:16;10.82;;;4.00;;
18685;SDS011;9473;52.342;13.110;2023-06-10T02:41:43;8.85;;;3.83;;
18685;SDS011;9473;52.342;13.110;2023-06-10T02:44:10;13.98;;;3.95;;
18685;SDS011;9473;52.342;13.110;2023-06-10T02:46:37;16.92;;;4.55;;
18685;SDS011;9473;52.342;13.110;2023-06-10T02:49:05;8.82;;;4.13;;
18685;SDS011;9473;52.342;13.110;2023-06-10T02:51:32;10.20;;;4.25;;
18685;SDS011;9473;52.342;13.110;2023-06-10T02:53:58;7.88;;;3.97;;
18685;SDS011;9473;52.342;13.110;2023-06-10T02:56:26;13.23;;;5.00;;
18685;SDS011;9473;52.342;13.110;2023-06-10T02:58:52;9.90;;;4.25;;
18685;SDS011;9473;52.342;13.110;2023-06-10T03:01:20;10.50;;;4.13;;
18685;SDS011;9473;52.342;13.110;2023-06-10T03:03:47;14.02;;;4.35;;
18685;SDS011;9473;52.342;13.110;2023-06-10T03:06:16;10.05;;;4.10;;
18685;SDS011;9473;52.342;13.110;2023-06-10T03:08:43;10.38;;;4.25;;
18685;SDS011;9473;52.342;13.110;2023-06-10T03:11:11;10.77;;;4.22;;
18685;SDS011;9473;52.342;13.110;2023-06-10T03:13:38;13.02;;;4.15;;
18685;SDS011;9473;52.342;13.110;2023-06-10T03:16:05;10.38;;;4.30;;
18685;SDS011;9473;52.342;13.110;2023-06-10T03:18:32;11.27;;;3.63;;
18685;SDS011;9473;52.342;13.110;2023-06-10T03:20:59;10.80;;;4.30;;
18685;SDS011;9473;52.342;13.110;2023-06-10T03:23:29;12.07;;;4.30;;
18685;SDS011;9473;52.342;13.110;2023-06-10T03:25:56;11.70;;;4.57;;
18685;SDS011;9473;52.342;13.110;2023-06-10T03:28:23;8.88;;;4.10;;
18685;SDS011;9473;52.342;13.110;2023-06-10T03:30:50;10.50;;;4.20;;
18685;SDS011;9473;52.342;13.110;2023-06-10T03:33:17;7.53;;;3.95;;
18685;SDS011;9473;52.342;13.110;2023-06-10T03:35:45;10.25;;;3.92;;
18685;SDS011;9473;52.342;13.110;2023-06-10T03:38:11;9.18;;;4.00;;
18685;SDS011;9473;52.342;13.110;2023-06-10T03:40:40;10.13;;;3.83;;
18685;SDS011;9473;52.342;13.110;2023-06-10T03:43:07;9.77;;;4.10;;
18685;SDS011;9473;52.342;13.110;2023-06-10T03:45:34;10.95;;;4.35;;
18685;SDS011;9473;52.342;13.110;2023-06-10T03:48:01;10.80;;;4.43;;
18685;SDS011;9473;52.342;13.110;2023-06-10T03:50:28;13.00;;;5.25;;
18685;SDS011;9473;52.342;13.110;2023-06-10T03:52:55;12.68;;;4.57;;
18685;SDS011;9473;52.342;13.110;2023-06-10T03:55:22;10.45;;;4.18;;
18685;SDS011;9473;52.342;13.110;2023-06-10T03:57:50;15.30;;;4.05;;
18685;SDS011;9473;52.342;13.110;2023-06-10T04:00:18;11.05;;;4.18;;
18685;SDS011;9473;52.342;13.110;2023-06-10T04:02:46;11.98;;;4.43;;
18685;SDS011;9473;52.342;13.110;2023-06-10T04:05:16;9.65;;;3.72;;
18685;SDS011;9473;52.342;13.110;2023-06-10T04:07:43;9.18;;;3.65;;
18685;SDS011;9473;52.342;13.110;2023-06-10T04:10:11;13.60;;;4.82;;
18685;SDS011;9473;52.342;13.110;2023-06-10T04:12:38;9.77;;;4.05;;
18685;SDS011;9473;52.342;13.110;2023-06-10T04:15:07;12.88;;;4.88;;
18685;SDS011;9473;52.342;13.110;2023-06-10T04:17:34;8.05;;;3.97;;
18685;SDS011;9473;52.342;13.110;2023-06-10T04:20:01;7.65;;;4.00;;
18685;SDS011;9473;52.342;13.110;2023-06-10T04:22:31;11.25;;;4.40;;
18685;SDS011;9473;52.342;13.110;2023-06-10T04:24:58;9.63;;;4.30;;
18685;SDS011;9473;52.342;13.110;2023-06-10T04:27:25;8.52;;;4.20;;
18685;SDS011;9473;52.342;13.110;2023-06-10T04:29:52;13.98;;;4.38;;
18685;SDS011;9473;52.342;13.110;2023-06-10T04:32:20;17.38;;;4.90;;
18685;SDS011;9473;52.342;13.110;2023-06-10T04:34:48;9.88;;;4.15;;
18685;SDS011;9473;52.342;13.110;2023-06-10T04:37:15;10.80;;;4.60;;
18685;SDS011;9473;52.342;13.110;2023-06-10T04:39:43;11.85;;;4.97;;
18685;SDS011;9473;52.342;13.110;2023-06-10T04:42:10;11.45;;;4.80;;
18685;SDS011;9473;52.342;13.110;2023-06-10T04:44:37;13.52;;;4.65;;
18685;SDS011;9473;52.342;13.110;2023-06-10T04:47:04;10.07;;;4.55;;
18685;SDS011;9473;52.342;13.110;2023-06-10T04:49:34;8.25;;;4.20;;
18685;SDS011;9473;52.342;13.110;2023-06-10T04:52:01;11.13;;;4.20;;
18685;SDS011;9473;52.342;13.110;2023-06-10T04:54:29;10.48;;;5.00;;
18685;SDS011;9473;52.342;13.110;2023-06-10T04:56:57;12.77;;;4.40;;
18685;SDS011;9473;52.342;13.110;2023-06-10T04:59:24;12.65;;;4.60;;
18685;SDS011;9473;52.342;13.110;2023-06-10T05:01:51;9.35;;;4.32;;
18685;SDS011;9473;52.342;13.110;2023-06-10T05:04:18;11.48;;;4.70;;
18685;SDS011;9473;52.342;13.110;2023-06-10T05:06:46;8.77;;;4.50;;
18685;SDS011;9473;52.342;13.110;2023-06-10T05:09:13;10.55;;;4.68;;
18685;SDS011;9473;52.342;13.110;2023-06-10T05:11:40;11.00;;;4.75;;
18685;SDS011;9473;52.342;13.110;2023-06-10T05:14:07;15.68;;;5.10;;
18685;SDS011;9473;52.342;13.110;2023-06-10T05:16:34;9.45;;;5.15;;
18685;SDS011;9473;52.342;13.110;2023-06-10T05:19:01;12.80;;;5.07;;
18685;SDS011;9473;52.342;13.110;2023-06-10T05:21:29;12.57;;;4.65;;
18685;SDS011;9473;52.342;13.110;2023-06-10T05:23:57;9.38;;;4.82;;
18685;SDS011;9473;52.342;13.110;2023-06-10T05:26:24;15.18;;;5.25;;
18685;SDS011;9473;52.342;13.110;2023-06-10T05:28:51;11.93;;;4.88;;
18685;SDS011;9473;52.342;13.110;2023-06-10T05:31:18;14.98;;;5.40;;
18685;SDS011;9473;52.342;13.110;2023-06-10T05:33:45;10.73;;;4.70;;
18685;SDS011;9473;52.342;13.110;2023-06-10T05:36:12;15.35;;;4.97;;
18685;SDS011;9473;52.342;13.110;2023-06-10T05:38:39;11.70;;;4.80;;
18685;SDS011;9473;52.342;13.110;2023-06-10T05:41:07;11.13;;;4.90;;
18685;SDS011;9473;52.342;13.110;2023-06-10T05:43:34;9.95;;;5.38;;
18685;SDS011;9473;52.342;13.110;2023-06-10T05:46:01;11.50;;;5.10;;
18685;SDS011;9473;52.342;13.110;2023-06-10T05:48:28;11.18;;;5.35;;
18685;SDS011;9473;52.342;13.110;2023-06-10T05:50:55;11.93;;;5.03;;
18685;SDS011;9473;52.342;13.110;2023-06-10T05:53:22;13.43;;;6.43;;
18685;SDS011;9473;52.342;13.110;2023-06-10T05:55:49;12.50;;;5.90;;
18685;SDS011;9473;52.342;13.110;2023-06-10T05:58:18;11.15;;;5.63;;
18685;SDS011;9473;52.342;13.110;2023-06-10T06:00:45;11.88;;;5.68;;
18685;SDS011;9473;52.342;13.110;2023-06-10T06:03:12;12.77;;;6.13;;
18685;SDS011;9473;52.342;13.110;2023-06-10T06:05:39;13.48;;;6.10;;
18685;SDS011;9473;52.342;13.110;2023-06-10T06:08:06;10.23;;;5.65;;
18685;SDS011;9473;52.342;13.110;2023-06-10T06:10:33;13.57;;;5.90;;
18685;SDS011;9473;52.342;13.110;2023-06-10T06:13:00;9.82;;;6.18;;
18685;SDS011;9473;52.342;13.110;2023-06-10T06:15:28;10.70;;;6.00;;
18685;SDS011;9473;52.342;13.110;2023-06-10T06:17:55;10.38;;;5.75;;
18685;SDS011;9473;52.342;13.110;2023-06-10T06:20:22;13.38;;;5.47;;
18685;SDS011;9473;52.342;13.110;2023-06-10T06:22:49;11.88;;;5.18;;
18685;SDS011;9473;52.342;13.110;2023-06-10T06:25:16;11.23;;;6.18;;
18685;SDS011;9473;52.342;13.110;2023-06-10T06:27:43;11.60;;;5.93;;
18685;SDS011;9473;52.342;13.110;2023-06-10T06:30:10;12.57;;;6.25;;
18685;SDS011;9473;52.342;13.110;2023-06-10T06:32:39;12.45;;;6.20;;
18685;SDS011;9473;52.342;13.110;2023-06-10T06:35:06;12.05;;;5.97;;
18685;SDS011;9473;52.342;13.110;2023-06-10T06:37:33;16.15;;;6.28;;
18685;SDS011;9473;52.342;13.110;2023-06-10T06:40:01;16.98;;;6.10;;
18685;SDS011;9473;52.342;13.110;2023-06-10T06:42:28;11.00;;;6.85;;
18685;SDS011;9473;52.342;13.110;2023-06-10T06:44:55;12.57;;;6.15;;
18685;SDS011;9473;52.342;13.110;2023-06-10T06:47:22;14.18;;;6.25;;
18685;SDS011;9473;52.342;13.110;2023-06-10T06:49:51;11.70;;;6.60;;
18685;SDS011;9473;52.342;13.110;2023-06-10T06:52:17;12.05;;;5.85;;
18685;SDS011;9473;52.342;13.110;2023-06-10T06:54:44;16.02;;;5.97;;
18685;SDS011;9473;52.342;13.110;2023-06-10T06:57:11;14.50;;;6.82;;
18685;SDS011;9473;52.342;13.110;2023-06-10T06:59:38;11.48;;;7.10;;
18685;SDS011;9473;52.342;13.110;2023-06-10T07:02:05;10.27;;;6.15;;
18685;SDS011;9473;52.342;13.110;2023-06-10T07:04:32;12.68;;;6.30;;
18685;SDS011;9473;52.342;13.110;2023-06-10T07:07:01;14.07;;;6.13;;
18685;SDS011;9473;52.342;13.110;2023-06-10T07:09:28;10.65;;;6.10;;
18685;SDS011;9473;52.342;13.110;2023-06-10T07:11:55;10.75;;;6.70;;
18685;SDS011;9473;52.342;13.110;2023-06-10T07:14:21;14.38;;;6.78;;
18685;SDS011;9473;52.342;13.110;2023-06-10T07:16:48;12.68;;;6.43;;
18685;SDS011;9473;52.342;13.110;2023-06-10T07:19:15;10.10;;;6.30;;
18685;SDS011;9473;52.342;13.110;2023-06-10T07:21:42;13.88;;;6.60;;
18685;SDS011;9473;52.342;13.110;2023-06-10T07:24:11;12.02;;;6.63;;
18685;SDS011;9473;52.342;13.110;2023-06-10T07:26:38;11.82;;;6.85;;
18685;SDS011;9473;52.342;13.110;2023-06-10T07:29:04;13.07;;;6.53;;
18685;SDS011;9473;52.342;13.110;2023-06-10T07:31:31;13.05;;;6.78;;
18685;SDS011;9473;52.342;13.110;2023-06-10T07:33:59;12.88;;;7.10;;
18685;SDS011;9473;52.342;13.110;2023-06-10T07:36:25;12.65;;;6.93;;
18685;SDS011;9473;52.342;13.110;2023-06-10T07:38:54;12.73;;;7.13;;
18685;SDS011;9473;52.342;13.110;2023-06-10T07:41:23;11.85;;;7.47;;
18685;SDS011;9473;52.342;13.110;2023-06-10T07:43:50;15.13;;;7.38;;
18685;SDS011;9473;52.342;13.110;2023-06-10T07:46:19;14.02;;;7.57;;
18685;SDS011;9473;52.342;13.110;2023-06-10T07:48:46;15.52;;;7.78;;
18685;SDS011;9473;52.342;13.110;2023-06-10T07:51:14;14.55;;;7.45;;
18685;SDS011;9473;52.342;13.110;2023-06-10T07:53:41;11.73;;;7.20;;
18685;SDS011;9473;52.342;13.110;2023-06-10T07:56:08;13.13;;;7.25;;
18685;SDS011;9473;52.342;13.110;2023-06-10T07:58:36;11.20;;;7.00;;
18685;SDS011;9473;52.342;13.110;2023-06-10T08:01:03;13.02;;;7.22;;
18685;SDS011;9473;52.342;13.110;2023-06-10T08:03:30;14.40;;;7.68;;
18685;SDS011;9473;52.342;13.110;2023-06-10T08:05:57;13.82;;;7.80;;
18685;SDS011;9473;52.342;13.110;2023-06-10T08:08:24;18.00;;;7.88;;
18685;SDS011;9473;52.342;13.110;2023-06-10T08:10:51;10.23;;;7.00;;
18685;SDS011;9473;52.342;13.110;2023-06-10T08:13:18;13.00;;;6.75;;
18685;SDS011;9473;52.342;13.110;2023-06-10T08:15:47;11.00;;;6.63;;
18685;SDS011;9473;52.342;13.110;2023-06-10T08:18:15;10.23;;;6.68;;
18685;SDS011;9473;52.342;13.110;2023-06-10T08:20:42;12.65;;;7.25;;
18685;SDS011;9473;52.342;13.110;2023-06-10T08:23:09;12.55;;;7.45;;
18685;SDS011;9473;52.342;13.110;2023-06-10T08:25:36;13.73;;;7.13;;
18685;SDS011;9473;52.342;13.110;2023-06-10T08:28:03;14.95;;;7.28;;
18685;SDS011;9473;52.342;13.110;2023-06-10T08:30:30;14.45;;;7.68;;
18685;SDS011;9473;52.342;13.110;2023-06-10T08:32:58;15.57;;;7.65;;
18685;SDS011;9473;52.342;13.110;2023-06-10T08:35:25;10.57;;;7.53;;
18685;SDS011;9473;52.342;13.110;2023-06-10T08:37:53;11.00;;;7.50;;
18685;SDS011;9473;52.342;13.110;2023-06-10T08:40:20;11.45;;;7.22;;
18685;SDS011;9473;52.342;13.110;2023-06-10T08:42:48;13.18;;;7.22;;
18685;SDS011;9473;52.342;13.110;2023-06-10T08:45:18;12.77;;;7.68;;
18685;SDS011;9473;52.342;13.110;2023-06-10T08:47:45;15.63;;;7.38;;
18685;SDS011;9473;52.342;13.110;2023-06-10T08:50:14;13.93;;;7.43;;
18685;SDS011;9473;52.342;13.110;2023-06-10T08:52:42;11.40;;;7.18;;
18685;SDS011;9473;52.342;13.110;2023-06-10T08:55:10;12.35;;;7.00;;
18685;SDS011;9473;52.342;13.110;2023-06-10T08:57:38;15.23;;;7.20;;
18685;SDS011;9473;52.342;13.110;2023-06-10T09:00:05;16.02;;;7.68;;
18685;SDS011;9473;52.342;13.110;2023-06-10T09:02:33;10.73;;;6.85;;
18685;SDS011;9473;52.342;13.110;2023-06-10T09:05:01;12.70;;;7.85;;
18685;SDS011;9473;52.342;13.110;2023-06-10T09:07:30;11.90;;;7.70;;
18685;SDS011;9473;52.342;13.110;2023-06-10T09:09:59;13.57;;;6.85;;
18685;SDS011;9473;52.342;13.110;2023-06-10T09:12:28;13.85;;;7.28;;
18685;SDS011;9473;52.342;13.110;2023-06-10T09:14:55;14.18;;;7.20;;
18685;SDS011;9473;52.342;13.110;2023-06-10T09:17:22;14.07;;;7.40;;
18685;SDS011;9473;52.342;13.110;2023-06-10T09:19:49;10.32;;;6.65;;
18685;SDS011;9473;52.342;13.110;2023-06-10T09:22:18;13.25;;;7.10;;
18685;SDS011;9473;52.342;13.110;2023-06-10T09:24:47;11.73;;;7.28;;
18685;SDS011;9473;52.342;13.110;2023-06-10T09:27:14;12.77;;;7.05;;
18685;SDS011;9473;52.342;13.110;2023-06-10T09:29:47;12.48;;;7.20;;
18685;SDS011;9473;52.342;13.110;2023-06-10T09:32:18;14.38;;;7.70;;
18685;SDS011;9473;52.342;13.110;2023-06-10T09:34:45;11.55;;;7.10;;
18685;SDS011;9473;52.342;13.110;2023-06-10T09:37:12;15.65;;;7.30;;
18685;SDS011;9473;52.342;13.110;2023-06-10T09:39:39;12.10;;;7.38;;
18685;SDS011;9473;52.342;13.110;2023-06-10T09:42:16;16.70;;;7.57;;
18685;SDS011;9473;52.342;13.110;2023-06-10T09:44:48;13.93;;;7.70;;
18685;SDS011;9473;52.342;13.110;2023-06-10T09:47:19;11.10;;;7.43;;
18685;SDS011;9473;52.342;13.110;2023-06-10T09:49:46;14.27;;;7.68;;
18685;SDS011;9473;52.342;13.110;2023-06-10T09:52:13;14.35;;;7.80;;
18685;SDS011;9473;52.342;13.110;2023-06-10T09:54:40;12.77;;;7.55;;
18685;SDS011;9473;52.342;13.110;2023-06-10T09:57:10;14.70;;;7.55;;
18685;SDS011;9473;52.342;13.110;2023-06-10T09:59:40;20.25;;;7.43;;
18685;SDS011;9473;52.342;13.110;2023-06-10T10:02:09;10.15;;;7.45;;
18685;SDS011;9473;52.342;13.110;2023-06-10T10:04:39;12.98;;;7.43;;
18685;SDS011;9473;52.342;13.110;2023-06-10T10:07:06;13.75;;;7.78;;
18685;SDS011;9473;52.342;13.110;2023-06-10T10:09:35;11.88;;;7.15;;
18685;SDS011;9473;52.342;13.110;2023-06-10T10:12:02;10.57;;;7.28;;
18685;SDS011;9473;52.342;13.110;2023-06-10T10:14:30;13.93;;;6.88;;
18685;SDS011;9473;52.342;13.110;2023-06-10T10:17:00;12.82;;;7.55;;
18685;SDS011;9473;52.342;13.110;2023-06-10T10:19:28;8.00;;;6.50;;
18685;SDS011;9473;52.342;13.110;2023-06-10T10:22:00;10.60;;;7.38;;
18685;SDS011;9473;52.342;13.110;2023-06-10T10:24:30;10.38;;;7.20;;
18685;SDS011;9473;52.342;13.110;2023-06-10T10:26:58;13.77;;;7.65;;
18685;SDS011;9473;52.342;13.110;2023-06-10T10:29:28;12.10;;;7.07;;
18685;SDS011;9473;52.342;13.110;2023-06-10T10:31:57;13.50;;;7.38;;
18685;SDS011;9473;52.342;13.110;2023-06-10T10:34:29;10.75;;;6.90;;
18685;SDS011;9473;52.342;13.110;2023-06-10T10:36:57;10.48;;;7.32;;
18685;SDS011;9473;52.342;13.110;2023-06-10T10:39:24;11.07;;;6.85;;
18685;SDS011;9473;52.342;13.110;2023-06-10T10:41:53;16.55;;;8.23;;
18685;SDS011;9473;52.342;13.110;2023-06-10T10:44:20;13.23;;;7.60;;
18685;SDS011;9473;52.342;13.110;2023-06-10T10:46:48;9.88;;;7.25;;
18685;SDS011;9473;52.342;13.110;2023-06-10T10:49:16;13.40;;;7.15;;
18685;SDS011;9473;52.342;13.110;2023-06-10T10:51:58;15.00;;;7.40;;
18685;SDS011;9473;52.342;13.110;2023-06-10T10:54:29;11.35;;;7.03;;
18685;SDS011;9473;52.342;13.110;2023-06-10T10:57:12;14.13;;;7.60;;
18685;SDS011;9473;52.342;13.110;2023-06-10T10:59:43;12.57;;;7.30;;
18685;SDS011;9473;52.342;13.110;2023-06-10T11:02:10;14.32;;;7.70;;
18685;SDS011;9473;52.342;13.110;2023-06-10T11:04:37;14.75;;;7.18;;
18685;SDS011;9473;52.342;13.110;2023-06-10T11:07:07;10.18;;;6.63;;
18685;SDS011;9473;52.342;13.110;2023-06-10T11:09:34;11.27;;;6.72;;
18685;SDS011;9473;52.342;13.110;2023-06-10T11:12:01;13.35;;;6.57;;
18685;SDS011;9473;52.342;13.110;2023-06-10T11:14:28;15.77;;;7.55;;
18685;SDS011;9473;52.342;13.110;2023-06-10T11:16:57;13.60;;;6.80;;
18685;SDS011;9473;52.342;13.110;2023-06-10T11:19:33;11.20;;;7.60;;
18685;SDS011;9473;52.342;13.110;2023-06-10T11:22:02;9.98;;;6.97;;
18685;SDS011;9473;52.342;13.110;2023-06-10T11:24:30;11.13;;;6.70;;
18685;SDS011;9473;52.342;13.110;2023-06-10T11:27:16;13.25;;;7.03;;
18685;SDS011;9473;52.342;13.110;2023-06-10T11:29:58;13.65;;;6.80;;
18685;SDS011;9473;52.342;13.110;2023-06-10T11:32:44;14.05;;;6.85;;
18685;SDS011;9473;52.342;13.110;2023-06-10T11:35:11;9.52;;;6.38;;
18685;SDS011;9473;52.342;13.110;2023-06-10T11:37:38;12.00;;;6.38;;
18685;SDS011;9473;52.342;13.110;2023-06-10T11:40:07;9.00;;;6.53;;
18685;SDS011;9473;52.342;13.110;2023-06-10T11:42:38;9.45;;;6.60;;
18685;SDS011;9473;52.342;13.110;2023-06-10T11:45:05;10.88;;;7.03;;
18685;SDS011;9473;52.342;13.110;2023-06-10T11:47:33;11.32;;;6.93;;
18685;SDS011;9473;52.342;13.110;2023-06-10T11:50:00;12.25;;;6.90;;
18685;SDS011;9473;52.342;13.110;2023-06-10T11:52:28;9.45;;;6.32;;
18685;SDS011;9473;52.342;13.110;2023-06-10T11:54:56;10.15;;;7.10;;
18685;SDS011;9473;52.342;13.110;2023-06-10T11:57:25;10.10;;;6.43;;
18685;SDS011;9473;52.342;13.110;2023-06-10T11:59:52;9.50;;;6.30;;
18685;SDS011;9473;52.342;13.110;2023-06-10T12:02:19;12.48;;;6.32;;
18685;SDS011;9473;52.342;13.110;2023-06-10T12:04:47;16.38;;;6.68;;
18685;SDS011;9473;52.342;13.110;2023-06-10T12:07:17;12.10;;;6.20;;
18685;SDS011;9473;52.342;13.110;2023-06-10T12:09:44;13.50;;;6.20;;
18685;SDS011;9473;52.342;13.110;2023-06-10T12:12:11;11.27;;;6.80;;
18685;SDS011;9473;52.342;13.110;2023-06-10T12:14:51;9.15;;;5.93;;
18685;SDS011;9473;52.342;13.110;2023-06-10T12:17:19;11.70;;;5.97;;
18685;SDS011;9473;52.342;13.110;2023-06-10T12:19:47;10.57;;;6.18;;
18685;SDS011;9473;52.342;13.110;2023-06-10T12:22:14;8.80;;;6.20;;
18685;SDS011;9473;52.342;13.110;2023-06-10T12:24:45;10.00;;;6.20;;
18685;SDS011;9473;52.342;13.110;2023-06-10T12:27:13;10.93;;;6.03;;
18685;SDS011;9473;52.342;13.110;2023-06-10T12:29:40;11.93;;;6.22;;
18685;SDS011;9473;52.342;13.110;2023-06-10T12:32:20;8.68;;;6.20;;
18685;SDS011;9473;52.342;13.110;2023-06-10T12:34:50;9.15;;;6.30;;
18685;SDS011;9473;52.342;13.110;2023-06-10T12:37:17;8.70;;;6.55;;
18685;SDS011;9473;52.342;13.110;2023-06-10T12:39:51;11.85;;;6.82;;
18685;SDS011;9473;52.342;13.110;2023-06-10T12:42:21;9.75;;;6.35;;
18685;SDS011;9473;52.342;13.110;2023-06-10T12:44:52;11.98;;;6.28;;
18685;SDS011;9473;52.342;13.110;2023-06-10T12:47:21;9.57;;;6.18;;
18685;SDS011;9473;52.342;13.110;2023-06-10T12:49:56;8.25;;;5.97;;
18685;SDS011;9473;52.342;13.110;2023-06-10T12:52:23;8.52;;;5.93;;
18685;SDS011;9473;52.342;13.110;2023-06-10T12:54:50;9.82;;;6.40;;
18685;SDS011;9473;52.342;13.110;2023-06-10T12:57:17;6.72;;;5.80;;
18685;SDS011;9473;52.342;13.110;2023-06-10T12:59:44;8.80;;;6.47;;
18685;SDS011;9473;52.342;13.110;2023-06-10T13:02:17;9.15;;;5.93;;
18685;SDS011;9473;52.342;13.110;2023-06-10T13:04:45;8.77;;;5.72;;
18685;SDS011;9473;52.342;13.110;2023-06-10T13:07:12;12.07;;;5.55;;
18685;SDS011;9473;52.342;13.110;2023-06-10T13:09:39;10.07;;;5.45;;
18685;SDS011;9473;52.342;13.110;2023-06-10T13:12:07;8.43;;;5.80;;
18685;SDS011;9473;52.342;13.110;2023-06-10T13:14:34;8.63;;;5.47;;
18685;SDS011;9473;52.342;13.110;2023-06-10T13:17:02;9.30;;;5.93;;
18685;SDS011;9473;52.342;13.110;2023-06-10T13:19:30;8.10;;;5.10;;
18685;SDS011;9473;52.342;13.110;2023-06-10T13:21:59;8.73;;;5.63;;
18685;SDS011;9473;52.342;13.110;2023-06-10T13:24:26;7.35;;;5.65;;
18685;SDS011;9473;52.342;13.110;2023-06-10T13:26:53;9.88;;;6.00;;
18685;SDS011;9473;52.342;13.110;2023-06-10T13:29:21;7.50;;;5.50;;
18685;SDS011;9473;52.342;13.110;2023-06-10T13:31:48;10.20;;;5.85;;
18685;SDS011;9473;52.342;13.110;2023-06-10T13:34:15;13.85;;;5.97;;
18685;SDS011;9473;52.342;13.110;2023-06-10T13:36:42;11.13;;;6.38;;
18685;SDS011;9473;52.342;13.110;2023-06-10T13:39:10;10.43;;;6.05;;
18685;SDS011;9473;52.342;13.110;2023-06-10T13:41:38;10.52;;;6.05;;
18685;SDS011;9473;52.342;13.110;2023-06-10T13:44:06;9.20;;;6.45;;
18685;SDS011;9473;52.342;13.110;2023-06-10T13:46:33;11.98;;;6.70;;
18685;SDS011;9473;52.342;13.110;2023-06-10T13:49:00;12.93;;;6.65;;
18685;SDS011;9473;52.342;13.110;2023-06-10T13:51:27;11.50;;;6.45;;
18685;SDS011;9473;52.342;13.110;2023-06-10T13:53:54;11.18;;;6.50;;
18685;SDS011;9473;52.342;13.110;2023-06-10T13:56:22;9.50;;;6.10;;
18685;SDS011;9473;52.342;13.110;2023-06-10T13:58:50;11.10;;;7.07;;
18685;SDS011;9473;52.342;13.110;2023-06-10T14:01:17;11.40;;;5.97;;
18685;SDS011;9473;52.342;13.110;2023-06-10T14:03:44;10.60;;;6.03;;
18685;SDS011;9473;52.342;13.110;2023-06-10T14:06:11;10.48;;;6.28;;
18685;SDS011;9473;52.342;13.110;2023-06-10T14:08:43;8.93;;;6.30;;
18685;SDS011;9473;52.342;13.110;2023-06-10T14:11:10;10.52;;;6.30;;
18685;SDS011;9473;52.342;13.110;2023-06-10T14:13:38;9.70;;;6.00;;
18685;SDS011;9473;52.342;13.110;2023-06-10T14:16:05;10.32;;;6.35;;
18685;SDS011;9473;52.342;13.110;2023-06-10T14:18:32;12.10;;;5.78;;
18685;SDS011;9473;52.342;13.110;2023-06-10T14:20:59;6.38;;;5.38;;
18685;SDS011;9473;52.342;13.110;2023-06-10T14:23:26;7.72;;;6.00;;
18685;SDS011;9473;52.342;13.110;2023-06-10T14:25:52;8.65;;;5.70;;
18685;SDS011;9473;52.342;13.110;2023-06-10T14:28:19;9.05;;;5.50;;
18685;SDS011;9473;52.342;13.110;2023-06-10T14:30:48;11.13;;;5.70;;
18685;SDS011;9473;52.342;13.110;2023-06-10T14:33:15;9.35;;;5.70;;
18685;SDS011;9473;52.342;13.110;2023-06-10T14:35:41;13.30;;;5.80;;
18685;SDS011;9473;52.342;13.110;2023-06-10T14:38:08;9.70;;;5.53;;
18685;SDS011;9473;52.342;13.110;2023-06-10T14:40:35;12.68;;;6.53;;
18685;SDS011;9473;52.342;13.110;2023-06-10T14:43:02;15.32;;;7.28;;